Toliver, North Carolina
Current Conditions -  °F | °C
As of 5:35 AM on Saturday 01 Nov 2014 (Local Time) from KTNB Reporting Station
Light Snow Light Snow  
Wind Chill: 22°   Ceiling: 3600
Heat Index: 32°   Visibility: 7mi
Dew Point: 27°   Wind: 13mph
Humidity: 83%   Direction: 320°NW
Pressure: 29.74"   Gusts: 17mph
Location:  36.3248°N, 81.6045°W
Report Text: KTNB 010935Z AUTO 32011G15KT 7SM -SN OVC036 00/M03 A2974 RMK AO2 T10021027
Loading
Personal Weather Stations






























Interactive Weather Map
Tropical Storm Tracking
New forecast layout! Learn more

10-Day Weather Forecast

Advertisements
Track Severe Weather on mobile